Time;durP1;ratioP1;P1;durP2;ratioP2;P2;SDS_P1;SDS_P2;PMS_P1;PMS_P2;Temp;Humidity;BMP_temperature;BMP_pressure;BME280_temperature;BME280_humidity;BME280_pressure;Samples;Min_cycle;Max_cycle;Signal;HPM_P1;HPM_P2
2023/03/05 00:01:24;;;;;;;14.80;6.35;;;-1.00;99.90;;;;;;5054695;28;20041;-81
2023/03/05 00:03:51;;;;;;;11.05;6.47;;;-1.00;99.90;;;;;;5055431;28;20032;-79
2023/03/05 00:06:20;;;;;;;12.27;6.13;;;-1.00;99.90;;;;;;5054002;28;20106;-78
2023/03/05 00:08:47;;;;;;;12.68;6.07;;;-1.00;99.90;;;;;;5054150;28;20635;-80
2023/03/05 00:11:13;;;;;;;11.27;4.90;;;-1.00;99.90;;;;;;5054337;28;20100;-78
2023/03/05 00:13:39;;;;;;;13.48;5.97;;;-1.10;99.90;;;;;;5056085;28;20551;-78
2023/03/05 00:16:08;;;;;;;15.68;6.97;;;-1.00;99.90;;;;;;5055418;28;20025;-78
2023/03/05 00:18:35;;;;;;;10.88;5.55;;;-1.00;99.90;;;;;;5056098;28;20070;-78
2023/03/05 00:21:01;;;;;;;11.70;5.78;;;-1.00;99.90;;;;;;5055731;28;20028;-78
2023/03/05 00:23:27;;;;;;;15.30;6.85;;;-1.00;99.90;;;;;;5056921;28;20025;-78
2023/03/05 00:25:52;;;;;;;12.82;6.18;;;-0.70;99.90;;;;;;5054851;28;20036;-78
2023/03/05 00:28:18;;;;;;;13.63;5.28;;;-1.10;99.90;;;;;;5055758;28;20032;-78
2023/03/05 00:30:44;;;;;;;11.45;5.90;;;-1.20;99.90;;;;;;5054822;28;20068;-80
2023/03/05 00:33:11;;;;;;;13.60;6.32;;;-1.10;99.90;;;;;;5054828;28;20504;-78
2023/03/05 00:35:42;;;;;;;14.65;6.75;;;-1.20;99.90;;;;;;5053770;28;20048;-79
2023/03/05 00:38:08;;;;;;;19.02;7.60;;;-1.20;99.90;;;;;;5054036;28;20029;-78
2023/03/05 00:40:36;;;;;;;12.15;5.25;;;-1.20;99.90;;;;;;5054633;28;20017;-78
2023/03/05 00:43:02;;;;;;;16.45;6.47;;;-1.20;99.90;;;;;;5056988;28;20025;-78
2023/03/05 00:45:28;;;;;;;13.65;7.10;;;-1.20;99.90;;;;;;5056345;28;20029;-77
2023/03/05 00:47:54;;;;;;;14.40;7.53;;;-0.70;99.90;;;;;;5057255;28;20029;-77
2023/03/05 00:50:19;;;;;;;15.20;6.63;;;-1.30;99.90;;;;;;5057975;28;20104;-77
2023/03/05 00:52:45;;;;;;;12.88;6.15;;;-1.30;99.90;;;;;;5058549;28;20021;-77
2023/03/05 00:55:11;;;;;;;12.43;6.32;;;-1.40;99.90;;;;;;5056820;28;20021;-77
2023/03/05 00:57:36;;;;;;;17.17;7.53;;;-1.40;99.90;;;;;;5057150;28;20482;-77
2023/03/05 01:00:04;;;;;;;13.23;6.88;;;-1.30;99.90;;;;;;5056853;28;20047;-78
2023/03/05 01:02:29;;;;;;;16.95;7.15;;;-1.40;99.90;;;;;;5056914;28;20044;-77
2023/03/05 01:04:55;;;;;;;12.13;6.35;;;-1.20;99.90;;;;;;5056578;28;20029;-77
2023/03/05 01:07:21;;;;;;;18.83;8.32;;;-1.40;99.90;;;;;;5056299;28;20064;-77
2023/03/05 01:09:46;;;;;;;17.50;7.38;;;-1.40;99.90;;;;;;5058473;28;20079;-78
2023/03/05 01:12:12;;;;;;;13.90;6.47;;;-1.30;99.90;;;;;;5056975;28;20033;-77
2023/03/05 01:14:37;;;;;;;14.77;7.03;;;-1.50;99.90;;;;;;5057002;28;20067;-76
2023/03/05 01:17:03;;;;;;;16.10;6.63;;;-1.40;99.90;;;;;;5058865;28;20063;-77
2023/03/05 01:19:29;;;;;;;13.10;6.80;;;-1.50;99.90;;;;;;5056296;28;20079;-80
2023/03/05 01:21:55;;;;;;;14.52;6.32;;;-1.50;99.90;;;;;;5057901;28;20029;-77
2023/03/05 01:24:21;;;;;;;16.02;7.13;;;-1.60;99.90;;;;;;5057733;28;20029;-77
2023/03/05 01:26:48;;;;;;;13.25;6.80;;;-1.50;99.90;;;;;;5057773;28;20049;-79
2023/03/05 01:29:14;;;;;;;15.60;7.10;;;-1.50;99.90;;;;;;5056126;28;20401;-77
2023/03/05 01:31:39;;;;;;;11.85;6.18;;;-1.50;99.90;;;;;;5056106;28;20489;-77
2023/03/05 01:34:05;;;;;;;16.23;6.28;;;-1.60;99.90;;;;;;5056899;28;20032;-77
2023/03/05 01:36:31;;;;;;;12.50;6.55;;;-1.60;99.90;;;;;;5056139;28;20021;-77
2023/03/05 01:38:57;;;;;;;19.70;7.20;;;-1.70;99.90;;;;;;5055908;28;20025;-77
2023/03/05 01:41:23;;;;;;;13.20;6.90;;;-1.70;99.90;;;;;;5057709;28;20075;-80
2023/03/05 01:43:51;;;;;;;11.27;5.82;;;-1.70;99.90;;;;;;5056095;28;20059;-76
2023/03/05 01:46:25;;;;;;;13.25;6.82;;;-1.70;99.90;;;;;;5055678;28;20025;-77
2023/03/05 01:49:24;;;;;;;12.10;5.47;;;-1.80;99.90;;;;;;5055647;28;20056;-77
2023/03/05 01:52:16;;;;;;;12.77;6.05;;;-1.80;99.90;;;;;;5057184;28;20027;-79
2023/03/05 01:55:20;;;;;;;13.68;5.60;;;-1.90;99.90;;;;;;5054633;28;20033;-77
2023/03/05 01:57:51;;;;;;;13.45;6.65;;;-1.90;99.90;;;;;;5051527;28;20105;-78
2023/03/05 02:00:40;;;;;;;13.80;7.18;;;-1.90;99.90;;;;;;5055809;28;20024;-77
2023/03/05 02:03:08;;;;;;;14.52;6.05;;;-1.90;99.90;;;;;;5056862;28;20029;-77
2023/03/05 02:05:36;;;;;;;12.27;5.88;;;-1.90;99.90;;;;;;5055555;28;20032;-77
2023/03/05 02:08:06;;;;;;;14.77;6.40;;;-1.90;99.90;;;;;;5056710;28;20397;-77
2023/03/05 02:10:38;;;;;;;15.50;7.03;;;-2.00;99.90;;;;;;5056572;28;20032;-77
2023/03/05 02:13:07;;;;;;;15.73;6.22;;;-1.90;99.90;;;;;;5055207;28;20055;-77
2023/03/05 02:15:33;;;;;;;11.00;5.13;;;-1.90;99.90;;;;;;5056674;28;20031;-78
2023/03/05 02:18:02;;;;;;;11.65;6.05;;;-2.00;99.90;;;;;;5055473;28;20111;-77
2023/03/05 02:20:30;;;;;;;17.05;6.00;;;-2.00;99.90;;;;;;5055816;28;20027;-77
2023/03/05 02:22:56;;;;;;;12.60;5.78;;;-2.10;99.90;;;;;;5055498;28;20021;-77
2023/03/05 02:25:23;;;;;;;11.63;5.93;;;-2.10;99.90;;;;;;5056900;28;20508;-78
2023/03/05 02:28:07;;;;;;;10.85;5.53;;;-2.10;99.90;;;;;;5057343;28;20067;-77
2023/03/05 02:30:34;;;;;;;12.20;5.10;;;-2.10;99.90;;;;;;5056420;28;20111;-76
2023/03/05 02:33:00;;;;;;;11.35;5.15;;;-2.10;99.90;;;;;;5055452;28;20092;-77
2023/03/05 02:35:26;;;;;;;16.20;6.30;;;-2.00;99.90;;;;;;5056073;28;20025;-77
2023/03/05 02:37:52;;;;;;;11.32;6.22;;;-2.10;99.90;;;;;;5054482;28;20025;-80
2023/03/05 02:40:17;;;;;;;11.27;5.40;;;-2.10;99.90;;;;;;5056091;28;20500;-76
2023/03/05 02:42:45;;;;;;;14.27;5.68;;;-2.10;99.90;;;;;;5056552;28;20483;-78
2023/03/05 02:45:12;;;;;;;17.40;7.38;;;-2.10;99.90;;;;;;5054632;28;20485;-78
2023/03/05 02:47:38;;;;;;;16.85;6.28;;;-2.20;99.90;;;;;;5054604;28;20029;-78
2023/03/05 02:50:05;;;;;;;10.73;5.97;;;-2.20;99.90;;;;;;5055073;28;20025;-77
2023/03/05 02:52:31;;;;;;;13.75;6.53;;;-2.10;99.90;;;;;;5056046;28;20456;-77
2023/03/05 02:54:57;;;;;;;11.75;5.60;;;-2.10;99.90;;;;;;5054819;28;20052;-78
2023/03/05 02:57:23;;;;;;;16.10;6.68;;;-2.20;99.90;;;;;;5054280;28;20021;-77
2023/03/05 02:59:49;;;;;;;14.18;5.78;;;-2.20;99.90;;;;;;5056025;28;20078;-77
2023/03/05 03:02:15;;;;;;;14.75;6.63;;;-2.20;99.90;;;;;;5055124;28;20021;-77
2023/03/05 03:04:42;;;;;;;11.88;5.57;;;-2.20;99.90;;;;;;5055105;28;20031;-77
2023/03/05 03:07:09;;;;;;;15.25;4.78;;;-2.10;99.90;;;;;;5054706;28;20028;-78
2023/03/05 03:09:35;;;;;;;13.27;5.70;;;-2.10;99.90;;;;;;5054380;28;20095;-77
2023/03/05 03:12:02;;;;;;;9.15;4.38;;;-2.30;99.90;;;;;;5054546;28;20028;-77
2023/03/05 03:14:31;;;;;;;13.32;5.43;;;-2.30;99.90;;;;;;5054100;28;20028;-78
2023/03/05 03:16:57;;;;;;;14.25;5.60;;;-2.30;99.90;;;;;;5055008;28;20027;-77
2023/03/05 03:19:23;;;;;;;10.95;5.95;;;-2.30;99.90;;;;;;5055582;28;20477;-77
2023/03/05 03:21:49;;;;;;;13.90;5.75;;;-2.40;99.90;;;;;;5054349;28;20040;-77
2023/03/05 03:24:15;;;;;;;9.65;5.03;;;-2.40;99.90;;;;;;5054938;28;20397;-77
2023/03/05 03:26:40;;;;;;;12.32;5.53;;;-1.70;99.90;;;;;;5053895;28;20025;-77
2023/03/05 03:29:06;;;;;;;16.45;6.30;;;-2.50;99.90;;;;;;5055047;28;20446;-77
2023/03/05 03:31:32;;;;;;;9.18;4.65;;;-2.50;99.90;;;;;;5054237;28;20699;-77
2023/03/05 03:33:58;;;;;;;13.23;6.18;;;-2.50;99.90;;;;;;5055753;28;20017;-77
2023/03/05 03:36:23;;;;;;;12.40;5.82;;;-2.40;99.90;;;;;;5054395;28;20017;-77
2023/03/05 03:38:49;;;;;;;12.27;5.90;;;-2.50;99.90;;;;;;5053924;28;20099;-81
2023/03/05 03:41:15;;;;;;;13.05;5.30;;;-2.50;99.90;;;;;;5054410;28;20025;-79
2023/03/05 03:43:41;;;;;;;11.82;5.95;;;-2.50;99.90;;;;;;5054150;28;20035;-80
2023/03/05 03:46:07;;;;;;;9.95;4.72;;;-2.50;99.90;;;;;;5056502;28;20028;-79
2023/03/05 03:48:33;;;;;;;10.00;5.82;;;-2.50;99.90;;;;;;5056436;28;20029;-77
2023/03/05 03:50:58;;;;;;;11.77;5.95;;;-2.40;99.90;;;;;;5053672;28;20108;-77
2023/03/05 03:53:24;;;;;;;11.40;5.25;;;-2.30;99.90;;;;;;5054289;28;20020;-77
2023/03/05 03:55:49;;;;;;;11.63;4.95;;;-2.40;99.90;;;;;;5054775;28;20016;-78
2023/03/05 03:58:15;;;;;;;9.57;4.60;;;-2.40;99.90;;;;;;5053625;28;20025;-79
2023/03/05 04:00:41;;;;;;;10.82;6.13;;;-2.50;99.90;;;;;;5053874;28;20036;-77
2023/03/05 04:03:08;;;;;;;14.32;5.57;;;-2.50;99.90;;;;;;5053507;28;20021;-77
2023/03/05 04:05:33;;;;;;;13.40;6.53;;;-2.50;99.90;;;;;;5053987;28;20025;-77
2023/03/05 04:08:00;;;;;;;9.93;5.35;;;-2.60;99.90;;;;;;5054604;28;20193;-77
2023/03/05 04:10:26;;;;;;;13.38;5.72;;;-2.60;99.90;;;;;;5053907;28;20035;-78
2023/03/05 04:12:51;;;;;;;16.25;5.88;;;-2.40;99.90;;;;;;5053416;28;20185;-77
2023/03/05 04:15:17;;;;;;;11.55;5.55;;;-2.60;99.90;;;;;;5054443;28;20035;-78
2023/03/05 04:17:43;;;;;;;12.25;4.90;;;-2.60;99.90;;;;;;5052147;28;20020;-77
2023/03/05 04:20:09;;;;;;;16.67;6.78;;;-2.60;99.90;;;;;;5053525;28;20028;-77
2023/03/05 04:22:36;;;;;;;16.33;5.40;;;-2.60;99.90;;;;;;5053334;28;20033;-77
2023/03/05 04:25:07;;;;;;;14.02;5.57;;;-2.60;99.90;;;;;;5052849;28;20025;-81
2023/03/05 04:27:33;;;;;;;17.50;5.70;;;-2.60;99.90;;;;;;5052306;28;20033;-77
2023/03/05 04:29:59;;;;;;;15.30;6.07;;;-2.60;99.90;;;;;;5053392;28;20020;-77
2023/03/05 04:32:27;;;;;;;14.20;5.70;;;-2.60;99.90;;;;;;5052878;28;20592;-77
2023/03/05 04:34:53;;;;;;;14.50;5.80;;;-2.60;99.90;;;;;;5053148;28;20029;-77
2023/03/05 04:37:18;;;;;;;11.55;5.47;;;-2.70;99.90;;;;;;5053465;28;20021;-77
2023/03/05 04:39:44;;;;;;;15.20;6.10;;;-2.70;99.90;;;;;;5053416;28;20043;-77
2023/03/05 04:42:09;;;;;;;14.52;5.20;;;-2.40;99.90;;;;;;5054116;28;20104;-77
2023/03/05 04:44:35;;;;;;;13.30;5.72;;;-2.60;99.90;;;;;;5054158;28;20465;-78
2023/03/05 04:47:01;;;;;;;9.38;5.05;;;-2.60;99.90;;;;;;5054621;28;20025;-77
2023/03/05 04:49:26;;;;;;;12.80;6.38;;;-2.60;99.90;;;;;;5052815;28;20482;-77
2023/03/05 04:51:52;;;;;;;12.15;5.07;;;-2.60;99.90;;;;;;5053332;28;20490;-77
2023/03/05 04:54:18;;;;;;;12.93;6.55;;;-2.60;99.90;;;;;;5054217;28;20466;-77
2023/03/05 04:56:43;;;;;;;20.77;7.32;;;-2.60;99.90;;;;;;5052646;28;20021;-76
2023/03/05 04:59:09;;;;;;;18.95;6.72;;;-2.60;99.90;;;;;;5052449;28;20021;-79
2023/03/05 05:01:35;;;;;;;18.70;7.68;;;-2.70;99.90;;;;;;5052470;28;20029;-82
2023/03/05 05:04:01;;;;;;;23.35;8.07;;;-2.60;99.90;;;;;;5053919;28;20021;-77
2023/03/05 05:06:26;;;;;;;13.75;6.35;;;-2.70;99.90;;;;;;5052234;28;20025;-77
2023/03/05 05:08:52;;;;;;;17.52;8.00;;;-2.80;99.90;;;;;;5052338;28;20033;-77
2023/03/05 05:11:18;;;;;;;13.90;6.05;;;-2.70;99.90;;;;;;5053197;28;20441;-78
2023/03/05 05:13:43;;;;;;;14.30;7.10;;;-2.70;99.90;;;;;;5053780;28;20096;-77
2023/03/05 05:16:09;;;;;;;21.60;7.28;;;-2.80;99.90;;;;;;5053963;28;20032;-77
2023/03/05 05:18:34;;;;;;;14.73;6.93;;;-2.70;99.90;;;;;;5053682;28;20017;-77
2023/03/05 05:21:00;;;;;;;16.85;8.02;;;-2.70;99.90;;;;;;5052822;28;20370;-77
2023/03/05 05:23:26;;;;;;;14.75;7.38;;;-2.60;99.90;;;;;;5054190;28;20096;-78
2023/03/05 05:26:00;;;;;;;15.13;6.88;;;-2.60;99.90;;;;;;5052272;28;20029;-77
2023/03/05 05:28:26;;;;;;;21.33;8.15;;;-2.60;99.90;;;;;;5054798;28;20021;-77
2023/03/05 05:30:52;;;;;;;13.75;6.85;;;-2.50;99.90;;;;;;5056885;28;20282;-77
2023/03/05 05:33:18;;;;;;;18.17;6.88;;;-2.50;99.90;;;;;;5056274;28;20071;-77
2023/03/05 05:35:43;;;;;;;16.40;6.70;;;-2.50;99.90;;;;;;5056686;28;20021;-77
2023/03/05 05:38:09;;;;;;;19.48;7.57;;;-2.50;99.90;;;;;;5056030;28;20025;-82
2023/03/05 05:40:35;;;;;;;18.33;7.22;;;-2.50;99.90;;;;;;5056582;28;20417;-77
2023/03/05 05:43:00;;;;;;;21.23;8.30;;;-2.50;99.90;;;;;;5056625;28;20405;-77
2023/03/05 05:45:26;;;;;;;17.45;8.40;;;-2.50;99.90;;;;;;5055786;28;20029;-77
2023/03/05 05:47:51;;;;;;;20.42;8.48;;;-2.50;99.90;;;;;;5056275;28;20475;-77
2023/03/05 05:50:19;;;;;;;16.17;7.68;;;-2.40;99.90;;;;;;5057623;28;20040;-77
2023/03/05 05:52:44;;;;;;;21.15;7.35;;;-2.40;99.90;;;;;;5057833;28;20025;-77
2023/03/05 05:55:11;;;;;;;17.45;7.78;;;-2.30;99.90;;;;;;5055413;28;20028;-77
2023/03/05 05:57:37;;;;;;;21.52;8.77;;;-2.30;99.90;;;;;;5055126;28;20017;-77
2023/03/05 06:00:06;;;;;;;13.80;7.32;;;-2.30;99.90;;;;;;5056398;28;20036;-77
2023/03/05 06:02:32;;;;;;;12.30;7.53;;;-2.30;99.90;;;;;;5055539;28;20033;-77
2023/03/05 06:04:57;;;;;;;13.35;7.22;;;-2.20;99.90;;;;;;5057538;28;20021;-77
2023/03/05 06:07:23;;;;;;;16.45;7.68;;;-2.10;99.90;;;;;;5057452;28;20025;-76
2023/03/05 06:09:49;;;;;;;16.60;6.78;;;-2.10;99.90;;;;;;5056124;28;20083;-77
2023/03/05 06:12:16;;;;;;;15.15;8.05;;;-1.80;99.90;;;;;;5055307;28;20082;-77
2023/03/05 06:14:42;;;;;;;17.13;7.47;;;-1.80;99.90;;;;;;5057109;28;20104;-76
2023/03/05 06:17:07;;;;;;;25.20;10.20;;;-1.50;99.90;;;;;;5055909;28;20520;-77
2023/03/05 06:19:33;;;;;;;23.25;8.52;;;-1.20;99.90;;;;;;5055535;28;20063;-77
2023/03/05 06:21:58;;;;;;;28.30;10.15;;;-1.60;99.90;;;;;;5056491;28;20071;-77
2023/03/05 06:24:24;;;;;;;20.55;8.98;;;-1.40;99.90;;;;;;5055793;28;20033;-77
2023/03/05 06:26:50;;;;;;;18.38;8.82;;;-1.40;99.90;;;;;;5055793;28;20037;-77
2023/03/05 06:29:15;;;;;;;20.02;8.88;;;-1.30;99.90;;;;;;5056805;28;20031;-77
2023/03/05 06:31:41;;;;;;;19.80;7.60;;;-1.30;99.90;;;;;;5057058;28;20104;-77
2023/03/05 06:34:07;;;;;;;14.60;7.90;;;-1.20;99.90;;;;;;5055931;28;20536;-77
2023/03/05 06:36:32;;;;;;;15.07;7.10;;;-1.20;99.90;;;;;;5055738;28;20025;-78
2023/03/05 06:38:58;;;;;;;20.00;10.30;;;-1.20;99.90;;;;;;5056013;28;20078;-77
2023/03/05 06:41:27;;;;;;;21.08;8.52;;;-1.30;99.90;;;;;;5055316;28;20112;-77
2023/03/05 06:43:53;;;;;;;19.90;8.02;;;-1.30;99.90;;;;;;5055482;28;20086;-77
2023/03/05 06:46:25;;;;;;;16.10;6.70;;;-1.10;99.90;;;;;;5055871;28;20025;-77
2023/03/05 06:48:53;;;;;;;13.50;6.07;;;-1.10;99.90;;;;;;5055095;28;20028;-77
2023/03/05 06:51:25;;;;;;;20.52;8.90;;;-1.00;99.90;;;;;;5054026;28;20025;-81
2023/03/05 06:53:52;;;;;;;16.05;8.05;;;0.30;99.90;;;;;;5055461;28;20025;-77
2023/03/05 06:56:18;;;;;;;20.05;7.95;;;0.40;99.90;;;;;;5055219;28;20017;-78
2023/03/05 06:58:46;;;;;;;19.17;8.27;;;0.10;99.90;;;;;;5054909;28;20031;-77
2023/03/05 07:01:13;;;;;;;20.55;8.95;;;0.30;99.90;;;;;;5052764;28;20432;-78
2023/03/05 07:03:39;;;;;;;19.48;9.35;;;0.30;99.90;;;;;;5055261;28;20028;-77
2023/03/05 07:06:06;;;;;;;15.52;8.32;;;0.40;99.90;;;;;;5055983;28;20067;-77
2023/03/05 07:08:32;;;;;;;22.58;10.13;;;0.50;99.90;;;;;;5056501;28;20126;-79
2023/03/05 07:10:59;;;;;;;27.42;12.45;;;0.50;99.90;;;;;;5057699;28;20097;-79
2023/03/05 07:13:25;;;;;;;20.45;10.95;;;0.60;99.90;;;;;;5065448;28;20484;-76
2023/03/05 07:15:50;;;;;;;32.55;18.70;;;0.60;99.90;;;;;;5058654;28;20028;-77
2023/03/05 07:18:16;;;;;;;35.95;15.52;;;0.70;99.90;;;;;;5058492;28;20464;-77
2023/03/05 07:20:42;;;;;;;29.60;13.73;;;0.80;99.90;;;;;;5059216;28;20527;-78
2023/03/05 07:23:07;;;;;;;31.25;12.85;;;1.10;99.90;;;;;;5056646;28;20393;-77
2023/03/05 07:25:35;;;;;;;25.70;11.13;;;1.10;99.90;;;;;;5055235;28;20507;-76
2023/03/05 07:28:04;;;;;;;24.25;10.88;;;1.30;99.90;;;;;;5054342;28;20025;-77
2023/03/05 07:30:30;;;;;;;24.05;10.25;;;1.50;99.90;;;;;;5054078;28;20032;-76
2023/03/05 07:32:55;;;;;;;21.85;11.15;;;1.60;99.90;;;;;;5054592;28;20021;-76
2023/03/05 07:35:23;;;;;;;22.83;12.82;;;1.80;99.90;;;;;;5056657;28;20021;-76
2023/03/05 07:37:49;;;;;;;22.88;9.98;;;1.90;99.90;;;;;;5055065;28;20393;-77
2023/03/05 07:40:14;;;;;;;22.75;11.60;;;2.00;99.90;;;;;;5055759;28;20021;-77
2023/03/05 07:42:40;;;;;;;21.45;10.48;;;2.00;99.90;;;;;;5055816;28;20025;-76
2023/03/05 07:45:06;;;;;;;20.48;9.30;;;2.00;99.90;;;;;;5054661;28;20132;-76
2023/03/05 07:47:32;;;;;;;19.92;11.25;;;2.10;99.90;;;;;;5054851;28;20032;-77
2023/03/05 07:49:58;;;;;;;21.17;9.80;;;2.30;99.90;;;;;;5054743;28;20024;-76
2023/03/05 07:52:23;;;;;;;20.65;10.52;;;2.40;99.90;;;;;;5055471;28;20118;-76
2023/03/05 07:54:49;;;;;;;20.80;9.32;;;2.50;99.90;;;;;;5054519;28;20110;-76
2023/03/05 07:57:15;;;;;;;16.85;9.18;;;2.70;99.90;;;;;;5053041;28;20124;-76
2023/03/05 07:59:41;;;;;;;26.00;11.95;;;2.80;99.90;;;;;;5054713;28;20066;-76
2023/03/05 08:02:10;;;;;;;21.30;8.70;;;3.00;99.90;;;;;;5053767;28;20104;-76
2023/03/05 08:04:37;;;;;;;15.13;8.75;;;3.10;99.90;;;;;;5052560;28;20396;-76
2023/03/05 08:07:02;;;;;;;24.23;10.88;;;3.30;99.90;;;;;;5052293;28;20704;-76
2023/03/05 08:09:28;;;;;;;16.73;9.90;;;3.20;99.90;;;;;;5052456;28;20029;-77
2023/03/05 08:11:54;;;;;;;18.80;10.35;;;3.40;99.90;;;;;;5053330;28;20127;-77
2023/03/05 08:14:19;;;;;;;22.45;10.82;;;3.50;99.90;;;;;;5052987;28;20032;-75
2023/03/05 08:16:45;;;;;;;22.77;10.73;;;3.50;99.90;;;;;;5052569;28;20070;-76
2023/03/05 08:19:11;;;;;;;25.20;10.20;;;3.50;99.90;;;;;;5052979;28;20044;-76
2023/03/05 08:21:37;;;;;;;20.63;9.30;;;3.70;99.90;;;;;;5054336;28;20033;-76
2023/03/05 08:24:06;;;;;;;20.90;8.73;;;3.80;99.90;;;;;;5053320;28;20036;-77
2023/03/05 08:26:34;;;;;;;26.08;10.15;;;3.80;99.90;;;;;;5053091;28;20025;-78
2023/03/05 08:29:01;;;;;;;25.83;11.90;;;4.10;99.90;;;;;;5050983;28;20060;-77
2023/03/05 08:31:29;;;;;;;14.30;8.75;;;4.10;99.90;;;;;;5054592;28;20092;-75
2023/03/05 08:33:56;;;;;;;19.45;9.07;;;4.20;99.90;;;;;;5059708;28;20021;-76
2023/03/05 08:36:21;;;;;;;14.38;8.18;;;4.40;99.90;;;;;;5059727;28;20382;-77
2023/03/05 08:38:47;;;;;;;16.40;8.05;;;4.60;99.90;;;;;;5058889;28;20059;-77
2023/03/05 08:41:14;;;;;;;19.25;10.57;;;4.70;99.90;;;;;;5060513;28;20397;-77
2023/03/05 08:43:40;;;;;;;16.95;9.38;;;4.80;99.90;;;;;;5059965;28;20036;-79
2023/03/05 08:46:06;;;;;;;23.38;10.35;;;4.90;99.90;;;;;;5061248;28;20033;-78
2023/03/05 08:48:32;;;;;;;20.80;10.70;;;4.90;99.90;;;;;;5060193;28;20044;-77
2023/03/05 08:51:04;;;;;;;20.50;10.20;;;5.00;99.90;;;;;;5062283;28;20080;-78
2023/03/05 08:53:29;;;;;;;19.90;9.57;;;5.30;99.90;;;;;;5060032;28;20025;-77
2023/03/05 08:55:57;;;;;;;16.33;9.07;;;5.70;99.90;;;;;;5059855;28;20516;-76
2023/03/05 08:58:23;;;;;;;24.17;11.10;;;6.10;99.90;;;;;;5059518;28;20029;-77
2023/03/05 09:00:49;;;;;;;17.98;9.07;;;6.40;99.90;;;;;;5058758;28;20021;-77
2023/03/05 09:03:14;;;;;;;19.30;9.90;;;6.70;99.00;;;;;;5062495;28;20115;-77
2023/03/05 09:05:40;;;;;;;20.40;11.73;;;6.90;99.30;;;;;;5064620;28;20123;-77
2023/03/05 09:08:06;;;;;;;19.27;9.80;;;6.90;98.10;;;;;;5064651;28;20071;-77
2023/03/05 09:10:31;;;;;;;17.55;8.80;;;7.10;97.20;;;;;;5063990;28;20025;-77
2023/03/05 09:12:57;;;;;;;15.50;8.18;;;7.10;96.40;;;;;;5063643;28;20031;-77
2023/03/05 09:15:23;;;;;;;23.10;9.23;;;7.20;96.00;;;;;;5061142;28;20024;-78
2023/03/05 09:17:48;;;;;;;15.73;8.00;;;7.30;95.60;;;;;;5061927;28;20017;-78
2023/03/05 09:20:14;;;;;;;18.45;9.40;;;7.20;95.60;;;;;;5080493;28;20047;-77
2023/03/05 09:22:40;;;;;;;16.75;8.90;;;7.20;94.60;;;;;;5081465;28;20415;-76
2023/03/05 09:25:07;;;;;;;15.82;7.88;;;7.30;94.50;;;;;;5081792;28;20029;-78
2023/03/05 09:27:33;;;;;;;15.68;7.97;;;7.20;94.50;;;;;;5081567;28;20039;-77
2023/03/05 09:29:59;;;;;;;17.50;8.82;;;7.20;94.40;;;;;;5084727;28;20427;-77
2023/03/05 09:32:25;;;;;;;17.65;9.68;;;7.30;95.40;;;;;;5082258;28;20084;-78
2023/03/05 09:34:50;;;;;;;20.33;10.75;;;7.30;95.50;;;;;;5082417;28;20017;-78
2023/03/05 09:37:16;;;;;;;15.98;9.40;;;7.40;95.70;;;;;;5083015;28;20474;-77
2023/03/05 09:39:41;;;;;;;19.00;9.52;;;7.60;95.20;;;;;;5083590;28;20024;-77
2023/03/05 09:42:25;;;;;;;14.05;8.30;;;7.60;94.80;;;;;;5081891;28;20559;-77
2023/03/05 09:45:12;;;;;;;16.67;8.45;;;7.70;95.10;;;;;;5084018;28;20029;-77
2023/03/05 09:47:53;;;;;;;22.42;11.80;;;7.60;94.30;;;;;;5082439;28;20020;-77
2023/03/05 09:50:40;;;;;;;19.67;10.35;;;7.70;94.30;;;;;;5082370;28;20035;-78
2023/03/05 09:53:29;;;;;;;15.35;8.57;;;7.70;94.30;;;;;;5081953;28;20488;-76
2023/03/05 09:56:03;;;;;;;17.40;8.88;;;7.80;94.10;;;;;;5079130;28;20021;-78
2023/03/05 09:58:39;;;;;;;23.30;9.20;;;7.90;94.60;;;;;;5064456;28;20096;-78
2023/03/05 10:01:43;;;;;;;16.17;9.55;;;8.10;94.30;;;;;;5077361;28;20021;-78
2023/03/05 10:04:27;;;;;;;17.70;8.50;;;8.30;92.20;;;;;;5012085;28;20022;-77
2023/03/05 10:07:20;;;;;;;18.13;10.30;;;8.40;92.90;;;;;;5056847;28;20044;-79
2023/03/05 10:09:56;;;;;;;14.45;8.60;;;8.40;93.30;;;;;;5056520;28;20147;-79
2023/03/05 10:12:37;;;;;;;15.63;9.60;;;8.20;93.50;;;;;;5059751;28;20028;-79
2023/03/05 10:15:22;;;;;;;18.33;9.40;;;8.00;94.00;;;;;;5056556;28;20055;-78
2023/03/05 10:18:29;;;;;;;15.65;8.80;;;7.90;93.00;;;;;;5040392;28;20031;-77
2023/03/05 10:20:57;;;;;;;20.95;8.82;;;7.80;93.00;;;;;;5037270;28;20084;-77
2023/03/05 10:24:15;;;;;;;15.13;8.10;;;8.00;93.20;;;;;;5037402;28;20175;-78
2023/03/05 10:26:59;;;;;;;19.77;9.80;;;8.10;93.10;;;;;;5037124;28;20038;-79
2023/03/05 10:29:38;;;;;;;15.15;8.13;;;8.40;94.10;;;;;;5036419;28;20049;-79
2023/03/05 10:32:25;;;;;;;19.83;9.70;;;8.50;92.50;;;;;;5038514;28;20037;-79
2023/03/05 10:34:59;;;;;;;23.40;9.95;;;8.60;92.10;;;;;;5036006;28;20026;-78
2023/03/05 10:37:55;;;;;;;22.73;9.73;;;8.60;91.60;;;;;;5038612;28;20018;-79
2023/03/05 10:40:47;;;;;;;17.40;8.77;;;8.90;91.40;;;;;;5036669;28;20021;-78
2023/03/05 10:43:25;;;;;;;19.35;11.18;;;9.00;89.40;;;;;;5036547;28;20096;-78
2023/03/05 10:45:53;;;;;;;17.23;9.52;;;9.10;88.30;;;;;;5038418;28;20052;-78
2023/03/05 10:48:34;;;;;;;16.02;7.53;;;9.10;87.80;;;;;;5036615;28;20026;-77
2023/03/05 10:51:20;;;;;;;17.15;8.35;;;9.20;90.00;;;;;;5037679;28;20057;-78
2023/03/05 10:54:00;;;;;;;15.40;8.17;;;9.30;87.70;;;;;;5038594;28;20048;-78
2023/03/05 10:56:28;;;;;;;15.05;8.70;;;9.50;84.70;;;;;;5039725;28;20371;-77
2023/03/05 10:58:54;;;;;;;13.30;7.35;;;9.60;83.30;;;;;;5036627;28;20033;-79
2023/03/05 11:01:28;;;;;;;13.73;7.95;;;9.70;83.20;;;;;;5036354;28;20038;-77
2023/03/05 11:04:02;;;;;;;18.65;9.52;;;9.80;82.10;;;;;;5037672;28;20132;-80
2023/03/05 11:06:35;;;;;;;16.83;8.45;;;9.80;81.40;;;;;;5039567;28;20045;-81
2023/03/05 11:09:13;;;;;;;18.10;8.55;;;9.60;80.10;;;;;;5039566;28;20476;-77
2023/03/05 11:11:39;;;;;;;18.42;8.70;;;9.30;81.60;;;;;;5036737;28;20021;-79
2023/03/05 11:14:04;;;;;;;15.30;8.18;;;9.30;81.20;;;;;;5038724;28;20093;-80
2023/03/05 11:16:34;;;;;;;20.92;10.07;;;9.20;81.00;;;;;;5038229;28;20047;-79
2023/03/05 11:19:23;;;;;;;21.35;10.95;;;9.40;81.10;;;;;;5047524;28;20095;-80
2023/03/05 11:22:09;;;;;;;21.83;8.30;;;9.40;80.40;;;;;;5036298;28;20029;-79
2023/03/05 11:24:36;;;;;;;15.88;8.52;;;9.10;78.90;;;;;;5037755;28;20478;-79
2023/03/05 11:27:19;;;;;;;21.95;12.05;;;9.20;79.20;;;;;;5037346;28;20029;-79
2023/03/05 11:29:48;;;;;;;18.08;8.68;;;9.30;77.50;;;;;;5047180;28;20017;-78
2023/03/05 11:32:22;;;;;;;21.08;10.57;;;9.30;74.40;;;;;;5038919;28;20041;-78
2023/03/05 11:34:48;;;;;;;18.77;8.68;;;9.40;75.30;;;;;;5036216;28;20030;-78
2023/03/05 11:37:29;;;;;;;12.25;6.72;;;9.70;76.90;;;;;;5037124;28;20022;-80
2023/03/05 11:40:16;;;;;;;13.60;7.78;;;10.10;72.90;;;;;;5039739;28;20463;-80
2023/03/05 11:42:43;;;;;;;17.15;8.57;;;10.40;73.60;;;;;;5039761;28;20026;-79
2023/03/05 11:45:17;;;;;;;16.13;9.88;;;10.70;69.90;;;;;;5037508;28;20025;-81
2023/03/05 11:48:19;;;;;;;16.83;7.72;;;10.80;69.70;;;;;;5038064;28;20026;-79
2023/03/05 11:50:51;;;;;;;19.50;8.18;;;10.60;68.40;;;;;;5034017;28;20076;-79
2023/03/05 11:53:27;;;;;;;16.38;8.45;;;10.60;69.10;;;;;;5037185;28;20075;-80
2023/03/05 11:56:11;;;;;;;;;;;10.60;68.60;;;;;;5038769;28;20177;-79
2023/03/05 11:58:51;;;;;;;37.83;15.60;;;10.60;68.20;;;;;;5035378;28;19905;-79
2023/03/05 12:01:22;;;;;;;18.15;8.77;;;10.50;69.20;;;;;;5036478;28;20092;-79
2023/03/05 12:03:49;;;;;;;30.20;13.48;;;10.50;69.00;;;;;;5036682;28;20018;-79
2023/03/05 12:06:36;;;;;;;16.52;8.85;;;10.50;67.60;;;;;;5036377;28;20021;-77
2023/03/05 12:09:11;;;;;;;15.25;7.88;;;10.40;67.80;;;;;;5036233;28;20022;-79
2023/03/05 12:11:37;;;;;;;14.13;7.13;;;10.50;67.70;;;;;;5037330;28;20033;-78
2023/03/05 12:14:36;;;;;;;13.07;7.25;;;10.50;66.70;;;;;;5036970;28;20022;-77
2023/03/05 12:17:34;;;;;;;19.52;9.60;;;10.10;67.60;;;;;;5035868;28;20025;-78
2023/03/05 12:20:05;;;;;;;12.60;6.97;;;10.20;68.20;;;;;;5013313;28;20036;-78
2023/03/05 12:22:37;;;;;;;14.77;7.47;;;10.30;69.80;;;;;;5036711;28;20509;-79
2023/03/05 12:25:26;;;;;;;16.45;7.93;;;10.40;67.80;;;;;;5037108;28;20037;-79
2023/03/05 12:27:52;;;;;;;13.68;7.07;;;10.50;68.40;;;;;;5035519;28;20509;-79
2023/03/05 12:30:33;;;;;;;15.90;7.43;;;10.50;67.70;;;;;;5036004;28;20034;-77
2023/03/05 12:33:03;;;;;;;11.07;6.47;;;10.40;67.00;;;;;;5038501;28;20044;-78
2023/03/05 12:35:37;;;;;;;15.75;7.70;;;10.50;68.30;;;;;;5034507;28;20163;-77
2023/03/05 12:38:32;;;;;;;13.55;7.80;;;10.60;67.20;;;;;;5035701;28;20055;-78
2023/03/05 12:41:16;;;;;;;14.48;7.43;;;10.80;67.80;;;;;;5035467;28;20021;-78
2023/03/05 12:43:42;;;;;;;16.95;7.20;;;11.00;67.10;;;;;;5034477;28;20193;-78
2023/03/05 12:46:31;;;;;;;29.30;13.07;;;11.20;67.30;;;;;;5033953;28;20032;-79
2023/03/05 12:49:15;;;;;;;20.67;10.85;;;11.20;68.00;;;;;;5036296;28;20025;-78
2023/03/05 12:51:41;;;;;;;19.75;10.45;;;11.00;66.00;;;;;;5035543;28;20026;-79
2023/03/05 12:54:34;;;;;;;13.43;6.28;;;11.00;66.30;;;;;;5036883;28;20026;-79